Time;durP1;ratioP1;P1;durP2;ratioP2;P2;SDS_P1;SDS_P2;PMS_P1;PMS_P2;Temp;Humidity;BMP_temperature;BMP_pressure;BME280_temperature;BME280_humidity;BME280_pressure;Samples;Min_cycle;Max_cycle;Signal;HPM_P1;HPM_P2
2022/07/23 00:01:34;;;;;;;;;;;29.70;47.20;;;;;;4999517;28;19972;-69
2022/07/23 00:03:59;;;;;;;;;;;29.60;47.30;;;;;;5000648;28;19922;-67
2022/07/23 00:06:25;;;;;;;;;;;29.60;47.20;;;;;;4998068;28;19928;-66
2022/07/23 00:08:51;;;;;;;;;;;29.60;47.20;;;;;;4999352;28;19979;-67
2022/07/23 00:11:16;;;;;;;;;;;29.60;47.30;;;;;;4998963;28;20230;-66
2022/07/23 00:13:42;;;;;;;;;;;29.60;47.30;;;;;;5002435;28;19924;-68
2022/07/23 00:16:08;;;;;;;;;;;29.60;47.30;;;;;;4999369;28;19924;-68
2022/07/23 00:18:34;;;;;;;;;;;29.60;47.30;;;;;;5001135;28;19921;-67
2022/07/23 00:20:59;;;;;;;;;;;29.60;47.40;;;;;;4995948;28;19921;-66
2022/07/23 00:23:25;;;;;;;;;;;29.60;47.60;;;;;;5000039;28;19932;-69
2022/07/23 00:25:51;;;;;;;;;;;29.60;47.40;;;;;;5001381;28;19928;-67
2022/07/23 00:28:18;;;;;;;;;;;29.60;47.40;;;;;;5001566;28;19957;-67
2022/07/23 00:30:44;;;;;;;;;;;29.60;47.40;;;;;;5006180;28;19932;-68
2022/07/23 00:33:12;;;;;;;;;;;29.60;47.50;;;;;;5009758;28;19921;-67
2022/07/23 00:35:40;;;;;;;;;;;29.60;47.50;;;;;;5000280;28;19913;-66
2022/07/23 00:38:07;;;;;;;;;;;29.60;47.50;;;;;;4998998;28;19943;-68
2022/07/23 00:40:33;;;;;;;;;;;29.60;47.50;;;;;;5002065;28;19924;-67
2022/07/23 00:42:59;;;;;;;;;;;29.60;47.50;;;;;;4998913;28;19925;-67
2022/07/23 00:45:24;;;;;;;;;;;29.60;47.50;;;;;;5006825;28;19933;-66
2022/07/23 00:47:50;;;;;;;;;;;29.60;47.50;;;;;;5000599;28;20000;-68
2022/07/23 00:50:16;;;;;;;;;;;29.60;47.50;;;;;;4998454;28;19916;-67
2022/07/23 00:52:42;;;;;;;;;;;29.60;47.50;;;;;;4996232;28;19975;-67
2022/07/23 00:55:08;;;;;;;;;;;29.60;47.60;;;;;;4998783;28;19918;-65
2022/07/23 00:57:34;;;;;;;;;;;29.60;47.60;;;;;;4999774;28;20008;-67
2022/07/23 01:00:00;;;;;;;;;;;29.60;47.60;;;;;;5000702;28;20469;-68
2022/07/23 01:02:26;;;;;;;;;;;29.60;47.60;;;;;;5007249;28;19921;-68
2022/07/23 01:04:52;;;;;;;;;;;29.50;47.50;;;;;;5001473;28;19941;-68
2022/07/23 01:07:18;;;;;;;;;;;29.50;47.50;;;;;;4997283;28;19979;-68
2022/07/23 01:09:44;;;;;;;;;;;29.60;47.60;;;;;;5000101;28;19913;-67
2022/07/23 01:12:10;;;;;;;;;;;29.50;47.50;;;;;;5004544;28;19917;-65
2022/07/23 01:14:35;;;;;;;;;;;29.50;47.60;;;;;;5000094;28;19980;-66
2022/07/23 01:17:01;;;;;;;;;;;29.50;47.50;;;;;;5000702;28;19918;-68
2022/07/23 01:19:27;;;;;;;;;;;29.50;47.60;;;;;;4998638;28;19957;-67
2022/07/23 01:21:53;;;;;;;;;;;29.50;47.60;;;;;;4995312;28;20227;-66
2022/07/23 01:24:21;;;;;;;;;;;29.50;47.70;;;;;;4999795;28;19933;-68
2022/07/23 01:26:47;;;;;;;;;;;29.50;47.70;;;;;;4998854;28;19928;-68
2022/07/23 01:29:14;;;;;;;;;;;29.50;47.70;;;;;;5000162;28;20416;-67
2022/07/23 01:31:40;;;;;;;;;;;29.50;47.70;;;;;;4998322;28;20013;-66
2022/07/23 01:34:06;;;;;;;;;;;29.50;47.70;;;;;;5000292;28;19992;-68
2022/07/23 01:36:33;;;;;;;;;;;29.50;47.70;;;;;;4996502;28;20225;-66
2022/07/23 01:38:59;;;;;;;;;;;29.50;47.80;;;;;;4999003;28;20464;-67
2022/07/23 01:41:25;;;;;;;;;;;29.50;47.80;;;;;;4999588;28;19917;-67
2022/07/23 01:43:50;;;;;;;;;;;29.50;47.90;;;;;;5000975;28;19917;-67
2022/07/23 01:46:16;;;;;;;;;;;29.50;47.90;;;;;;4997219;28;19996;-67
2022/07/23 01:48:42;;;;;;;;;;;29.50;48.10;;;;;;4999981;28;19980;-67
2022/07/23 01:51:07;;;;;;;;;;;29.50;47.90;;;;;;5003744;28;19918;-68
2022/07/23 01:53:33;;;;;;;;;;;29.50;48.00;;;;;;5000537;28;20315;-69
2022/07/23 01:55:59;;;;;;;;;;;29.50;48.00;;;;;;4998288;28;20290;-68
2022/07/23 01:58:25;;;;;;;;;;;29.50;48.00;;;;;;4997418;28;20369;-68
2022/07/23 02:00:51;;;;;;;;;;;29.50;48.00;;;;;;4997625;28;19943;-66
2022/07/23 02:03:16;;;;;;;;;;;29.50;48.10;;;;;;5000204;28;20278;-67
2022/07/23 02:05:42;;;;;;;;;;;29.50;48.10;;;;;;4994667;28;20095;-67
2022/07/23 02:08:07;;;;;;;;;;;29.50;48.10;;;;;;5000818;28;20356;-69
2022/07/23 02:10:33;;;;;;;;;;;29.50;48.20;;;;;;4998224;28;19921;-69
2022/07/23 02:12:59;;;;;;;;;;;29.50;48.10;;;;;;4998844;28;20226;-68
2022/07/23 02:15:24;;;;;;;;;;;29.50;48.10;;;;;;4999664;28;19917;-65
2022/07/23 02:17:50;;;;;;;;;;;29.50;48.20;;;;;;4998969;28;19918;-67
2022/07/23 02:20:16;;;;;;;;;;;29.50;48.20;;;;;;4998958;28;19976;-67
2022/07/23 02:22:41;;;;;;;;;;;29.50;48.20;;;;;;4996428;28;19922;-69
2022/07/23 02:25:07;;;;;;;;;;;29.50;48.20;;;;;;5000413;28;20354;-67
2022/07/23 02:27:33;;;;;;;;;;;29.50;48.20;;;;;;4998622;28;20598;-66
2022/07/23 02:29:59;;;;;;;;;;;29.50;48.30;;;;;;5005032;28;19924;-65
2022/07/23 02:32:25;;;;;;;;;;;29.50;48.30;;;;;;5007607;28;20015;-68
2022/07/23 02:34:50;;;;;;;;;;;29.50;48.20;;;;;;4999752;28;19917;-68
2022/07/23 02:37:16;;;;;;;;;;;29.50;48.30;;;;;;4996509;28;19956;-70
2022/07/23 02:39:42;;;;;;;;;;;29.50;48.20;;;;;;4998645;28;19987;-68
2022/07/23 02:42:08;;;;;;;;;;;29.50;48.30;;;;;;5005210;28;20318;-65
2022/07/23 02:44:34;;;;;;;;;;;29.50;48.30;;;;;;4997163;28;20024;-70
2022/07/23 02:46:59;;;;;;;;;;;29.50;48.30;;;;;;4999678;28;20611;-70
2022/07/23 02:49:25;;;;;;;;;;;29.50;48.30;;;;;;5000763;28;19917;-67
2022/07/23 02:51:51;;;;;;;;;;;29.50;48.30;;;;;;5006863;28;19999;-68
2022/07/23 02:54:17;;;;;;;;;;;29.50;48.30;;;;;;5000630;28;19914;-66
2022/07/23 02:56:42;;;;;;;;;;;29.50;48.30;;;;;;4998947;28;19957;-67
2022/07/23 02:59:08;;;;;;;;;;;29.50;48.20;;;;;;5015472;28;19967;-69
2022/07/23 03:01:33;;;;;;;;;;;29.50;48.30;;;;;;4995345;28;19956;-69
2022/07/23 03:03:59;;;;;;;;;;;29.50;48.20;;;;;;4999971;28;20726;-68
2022/07/23 03:06:25;;;;;;;;;;;29.50;48.30;;;;;;4997089;28;20000;-68
2022/07/23 03:08:50;;;;;;;;;;;29.40;48.20;;;;;;4999828;28;19975;-70
2022/07/23 03:11:16;;;;;;;;;;;29.40;48.20;;;;;;4997962;28;20648;-66
2022/07/23 03:13:42;;;;;;;;;;;29.40;48.20;;;;;;4999419;28;20362;-69
2022/07/23 03:16:07;;;;;;;;;;;29.40;48.20;;;;;;4997635;28;20051;-66
2022/07/23 03:18:33;;;;;;;;;;;29.40;48.20;;;;;;4999693;28;19924;-65
2022/07/23 03:20:59;;;;;;;;;;;29.40;48.20;;;;;;4996539;28;19961;-65
2022/07/23 03:23:24;;;;;;;;;;;29.40;48.20;;;;;;5005609;28;20003;-68
2022/07/23 03:25:50;;;;;;;;;;;29.40;48.20;;;;;;4998941;28;19941;-67
2022/07/23 03:28:16;;;;;;;;;;;29.40;48.20;;;;;;5000530;28;20313;-70
2022/07/23 03:30:48;;;;;;;;;;;29.40;48.20;;;;;;4998282;28;20122;-69
2022/07/23 03:33:14;;;;;;;;;;;29.40;48.20;;;;;;4999917;28;19921;-69
2022/07/23 03:35:40;;;;;;;;;;;29.40;48.10;;;;;;4997271;28;19961;-70
2022/07/23 03:38:05;;;;;;;;;;;29.40;48.20;;;;;;4998283;28;20043;-69
2022/07/23 03:40:30;;;;;;;;;;;29.40;48.20;;;;;;5001055;28;20640;-69
2022/07/23 03:42:56;;;;;;;;;;;29.40;48.10;;;;;;4996756;28;20310;-69
2022/07/23 03:45:21;;;;;;;;;;;29.40;48.10;;;;;;4997203;28;19928;-66
2022/07/23 03:47:47;;;;;;;;;;;29.40;48.10;;;;;;5001278;28;19914;-70
2022/07/23 03:50:12;;;;;;;;;;;29.40;48.10;;;;;;4998768;28;20341;-67
2022/07/23 03:52:38;;;;;;;;;;;29.40;48.10;;;;;;5002532;28;19913;-68
2022/07/23 03:55:04;;;;;;;;;;;29.40;48.20;;;;;;5001419;28;20315;-67
2022/07/23 03:57:30;;;;;;;;;;;29.30;48.10;;;;;;5003526;28;20357;-67
2022/07/23 03:59:55;;;;;;;;;;;29.30;48.10;;;;;;5005328;28;19917;-68
2022/07/23 04:02:20;;;;;;;;;;;29.30;48.10;;;;;;5000155;28;19927;-67
2022/07/23 04:04:46;;;;;;;;;;;29.30;48.10;;;;;;4999764;28;20349;-68
2022/07/23 04:07:12;;;;;;;;;;;29.30;48.10;;;;;;4999644;28;20099;-68
2022/07/23 04:09:40;;;;;;;;;;;29.30;48.10;;;;;;5001652;28;20357;-66
2022/07/23 04:12:06;;;;;;;;;;;29.30;48.10;;;;;;5001239;28;20052;-68
2022/07/23 04:14:31;;;;;;;;;;;29.30;48.20;;;;;;5004398;28;20012;-69
2022/07/23 04:16:57;;;;;;;;;;;29.00;48.90;;;;;;5001130;28;19917;-68
2022/07/23 04:19:22;;;;;;;;;;;28.60;49.50;;;;;;5000551;28;20484;-67
2022/07/23 04:21:48;;;;;;;;;;;28.30;50.30;;;;;;4997797;28;20222;-69
2022/07/23 04:24:13;;;;;;;;;;;28.00;51.10;;;;;;5001205;28;19921;-69
2022/07/23 04:26:39;;;;;;;;;;;27.90;51.40;;;;;;5010988;28;19918;-67
2022/07/23 04:29:04;;;;;;;;;;;27.90;51.30;;;;;;5002462;28;20445;-67
2022/07/23 04:31:29;;;;;;;;;;;28.00;50.90;;;;;;5002332;28;19926;-69
2022/07/23 04:33:55;;;;;;;;;;;28.10;50.80;;;;;;4999033;28;19921;-67
2022/07/23 04:36:20;;;;;;;;;;;28.10;50.60;;;;;;4998382;28;19918;-68
2022/07/23 04:38:46;;;;;;;;;;;28.20;50.30;;;;;;5000028;28;19921;-65
2022/07/23 04:41:11;;;;;;;;;;;28.20;50.30;;;;;;5010117;28;20012;-68
2022/07/23 04:43:37;;;;;;;;;;;28.20;50.20;;;;;;5003017;28;19917;-66
2022/07/23 04:46:02;;;;;;;;;;;28.10;50.80;;;;;;5001863;28;20020;-67
2022/07/23 04:48:28;;;;;;;;;;;28.00;50.70;;;;;;5000829;28;19921;-67
2022/07/23 04:50:53;;;;;;;;;;;28.10;50.70;;;;;;4999710;28;20406;-67
2022/07/23 04:53:19;;;;;;;;;;;28.10;50.60;;;;;;4998205;28;19913;-68
2022/07/23 04:55:45;;;;;;;;;;;28.10;50.50;;;;;;5000837;28;19924;-68
2022/07/23 04:58:10;;;;;;;;;;;28.10;50.50;;;;;;5001261;28;19922;-66
2022/07/23 05:00:36;;;;;;;;;;;28.10;50.50;;;;;;5001699;28;20324;-68
2022/07/23 05:03:01;;;;;;;;;;;28.10;50.40;;;;;;5006103;28;19917;-65
2022/07/23 05:05:27;;;;;;;;;;;28.10;50.30;;;;;;5005072;28;19928;-68
2022/07/23 05:07:52;;;;;;;;;;;28.10;50.20;;;;;;5005222;28;20914;-65
2022/07/23 05:10:18;;;;;;;;;;;28.10;50.20;;;;;;5005368;28;20330;-66
2022/07/23 05:12:43;;;;;;;;;;;28.10;50.20;;;;;;4998735;28;19924;-69
2022/07/23 05:15:09;;;;;;;;;;;28.10;50.20;;;;;;5001998;28;19983;-68
2022/07/23 05:17:34;;;;;;;;;;;28.10;50.10;;;;;;4993313;28;19924;-65
2022/07/23 05:20:00;;;;;;;;;;;28.20;50.20;;;;;;5008052;28;19925;-67
2022/07/23 05:22:25;;;;;;;;;;;28.20;50.20;;;;;;4997498;28;19967;-67
2022/07/23 05:24:51;;;;;;;;;;;28.20;50.20;;;;;;5000971;28;20012;-67
2022/07/23 05:27:16;;;;;;;;;;;28.10;50.20;;;;;;5007920;28;19918;-68
2022/07/23 05:29:42;;;;;;;;;;;28.20;50.20;;;;;;5000748;28;20665;-67
2022/07/23 05:32:07;;;;;;;;;;;28.10;50.20;;;;;;4997675;28;19921;-67
2022/07/23 05:34:33;;;;;;;;;;;28.10;50.20;;;;;;5001258;28;19996;-69
2022/07/23 05:36:58;;;;;;;;;;;28.10;50.20;;;;;;5004250;28;19917;-67
2022/07/23 05:39:24;;;;;;;;;;;28.10;50.30;;;;;;5000151;28;20792;-69
2022/07/23 05:41:49;;;;;;;;;;;28.10;50.80;;;;;;4999093;28;19925;-69
2022/07/23 05:44:15;;;;;;;;;;;28.00;51.50;;;;;;5007117;28;19933;-67
2022/07/23 05:46:40;;;;;;;;;;;28.00;52.10;;;;;;4998189;28;19921;-68
2022/07/23 05:49:06;;;;;;;;;;;27.80;52.20;;;;;;4999606;28;19917;-70
2022/07/23 05:51:31;;;;;;;;;;;27.80;52.20;;;;;;4996937;28;19917;-68
2022/07/23 05:53:57;;;;;;;;;;;27.80;52.20;;;;;;4998953;28;19917;-68
2022/07/23 05:56:22;;;;;;;;;;;27.80;52.40;;;;;;5000488;28;19940;-69
2022/07/23 05:58:48;;;;;;;;;;;27.60;52.70;;;;;;5008981;28;20473;-68
2022/07/23 06:01:13;;;;;;;;;;;27.60;52.70;;;;;;5001737;28;19921;-68
2022/07/23 06:03:39;;;;;;;;;;;27.60;52.80;;;;;;4998682;28;19917;-68
2022/07/23 06:06:04;;;;;;;;;;;27.50;52.90;;;;;;4997154;28;20362;-69
2022/07/23 06:08:30;;;;;;;;;;;27.40;53.10;;;;;;5001026;28;19913;-68
2022/07/23 06:10:55;;;;;;;;;;;27.50;53.00;;;;;;4999894;28;19928;-68
2022/07/23 06:13:21;;;;;;;;;;;27.40;53.10;;;;;;4997291;28;19917;-70
2022/07/23 06:15:46;;;;;;;;;;;27.40;52.90;;;;;;5009702;28;20389;-67
2022/07/23 06:18:12;;;;;;;;;;;27.40;53.10;;;;;;4999169;28;19917;-68
2022/07/23 06:20:38;;;;;;;;;;;27.30;53.30;;;;;;5007308;28;20023;-71
2022/07/23 06:23:03;;;;;;;;;;;27.20;54.00;;;;;;4998922;28;19917;-70
2022/07/23 06:25:29;;;;;;;;;;;27.00;54.40;;;;;;4998717;28;19964;-70
2022/07/23 06:27:54;;;;;;;;;;;27.00;55.00;;;;;;4997724;28;19920;-70
2022/07/23 06:30:20;;;;;;;;;;;26.80;55.00;;;;;;5007105;28;19922;-67
2022/07/23 06:32:54;;;;;;;;;;;26.80;55.00;;;;;;5001492;28;19910;-70
2022/07/23 06:35:20;;;;;;;;;;;26.80;55.10;;;;;;4997343;28;20023;-67
2022/07/23 06:37:46;;;;;;;;;;;26.70;55.00;;;;;;5012820;28;20385;-67
2022/07/23 06:40:12;;;;;;;;;;;26.70;55.30;;;;;;5009208;28;19924;-68
2022/07/23 06:42:39;;;;;;;;;;;26.70;55.30;;;;;;5005997;28;20345;-68
2022/07/23 06:45:05;;;;;;;;;;;26.70;55.40;;;;;;5005805;28;19971;-68
2022/07/23 06:47:31;;;;;;;;;;;26.60;55.60;;;;;;4998223;28;19967;-67
2022/07/23 06:49:56;;;;;;;;;;;26.60;55.50;;;;;;4999835;28;20027;-66
2022/07/23 06:52:22;;;;;;;;;;;26.60;55.10;;;;;;4997763;28;19928;-69
2022/07/23 06:54:47;;;;;;;;;;;26.70;54.80;;;;;;4996899;28;19921;-67
2022/07/23 06:57:13;;;;;;;;;;;26.70;54.50;;;;;;5004461;28;19921;-67
2022/07/23 06:59:40;;;;;;;;;;;26.70;54.10;;;;;;4995217;28;19914;-70
2022/07/23 07:02:06;;;;;;;;;;;26.80;53.90;;;;;;5004944;28;19922;-70
2022/07/23 07:04:32;;;;;;;;;;;26.80;53.60;;;;;;4993729;28;20012;-67
2022/07/23 07:06:57;;;;;;;;;;;26.90;53.40;;;;;;5001511;28;19923;-70
2022/07/23 07:09:23;;;;;;;;;;;26.90;53.20;;;;;;4997819;28;19924;-66
2022/07/23 07:11:48;;;;;;;;;;;26.90;53.10;;;;;;4996709;28;19924;-68
2022/07/23 07:14:14;;;;;;;;;;;27.00;53.00;;;;;;4998444;28;19918;-71
2022/07/23 07:16:39;;;;;;;;;;;27.00;52.80;;;;;;4995592;28;19925;-68
2022/07/23 07:19:05;;;;;;;;;;;27.00;52.70;;;;;;4995520;28;19945;-68
2022/07/23 07:21:30;;;;;;;;;;;27.00;52.60;;;;;;4995587;28;19913;-68
2022/07/23 07:23:56;;;;;;;;;;;27.10;52.50;;;;;;4994381;28;20083;-68
2022/07/23 07:26:22;;;;;;;;;;;27.10;52.50;;;;;;4997636;28;20710;-68
2022/07/23 07:28:47;;;;;;;;;;;27.10;52.50;;;;;;4993612;28;19924;-69
2022/07/23 07:31:13;;;;;;;;;;;27.10;52.40;;;;;;4998834;28;19995;-68
2022/07/23 07:33:38;;;;;;;;;;;27.10;52.40;;;;;;5016162;28;19925;-71
2022/07/23 07:36:04;;;;;;;;;;;27.10;52.40;;;;;;4999428;28;19924;-68
2022/07/23 07:38:29;;;;;;;;;;;27.10;52.30;;;;;;4998663;28;20042;-68
2022/07/23 07:40:55;;;;;;;;;;;27.20;52.30;;;;;;4999465;28;19923;-68
2022/07/23 07:43:20;;;;;;;;;;;27.20;52.20;;;;;;4999669;28;20047;-66
2022/07/23 07:45:46;;;;;;;;;;;27.20;52.10;;;;;;5000245;28;20591;-65
2022/07/23 07:48:12;;;;;;;;;;;27.20;52.10;;;;;;5005974;28;21309;-67
2022/07/23 07:50:37;;;;;;;;;;;27.20;52.00;;;;;;5005341;28;19918;-67
2022/07/23 07:53:03;;;;;;;;;;;27.20;51.90;;;;;;4997597;28;20925;-69
2022/07/23 07:55:29;;;;;;;;;;;27.20;51.90;;;;;;5006141;28;19917;-67
2022/07/23 07:57:54;;;;;;;;;;;27.20;51.80;;;;;;4998908;28;19929;-67
2022/07/23 08:00:20;;;;;;;;;;;27.20;51.80;;;;;;4995704;28;19921;-70
2022/07/23 08:02:50;;;;;;;;;;;27.30;51.90;;;;;;5007326;28;19953;-65
2022/07/23 08:05:18;;;;;;;;;;;27.20;51.80;;;;;;5006905;28;19921;-67
2022/07/23 08:07:44;;;;;;;;;;;27.30;51.70;;;;;;4997053;28;19917;-66
2022/07/23 08:10:09;;;;;;;;;;;27.20;51.60;;;;;;5001018;28;20243;-68
2022/07/23 08:12:55;;;;;;;;;;;27.20;51.60;;;;;;4997153;28;19917;-69
2022/07/23 08:15:21;;;;;;;;;;;27.30;51.60;;;;;;4998734;28;20003;-68
2022/07/23 08:17:47;;;;;;;;;;;27.30;52.20;;;;;;4999529;28;19921;-71
2022/07/23 08:20:13;;;;;;;;;;;27.30;51.60;;;;;;5006049;28;20028;-68
2022/07/23 08:22:46;;;;;;;;;;;27.30;51.50;;;;;;4997134;28;19921;-67
2022/07/23 08:25:12;;;;;;;;;;;27.30;51.50;;;;;;5007109;28;20577;-67
2022/07/23 08:27:38;;;;;;;;;;;27.30;51.50;;;;;;5001063;28;19917;-63
2022/07/23 08:30:04;;;;;;;;;;;27.30;51.40;;;;;;5003074;28;19947;-66
2022/07/23 08:32:29;;;;;;;;;;;27.40;51.50;;;;;;4999826;28;19922;-69
2022/07/23 08:34:55;;;;;;;;;;;27.30;51.90;;;;;;5000606;28;20983;-67
2022/07/23 08:37:20;;;;;;;;;;;27.40;51.40;;;;;;5000818;28;19971;-65
2022/07/23 08:39:46;;;;;;;;;;;27.40;51.30;;;;;;5005671;28;19956;-71
2022/07/23 08:42:13;;;;;;;;;;;27.40;51.30;;;;;;4998993;28;20067;-64
2022/07/23 08:44:42;;;;;;;;;;;27.40;51.30;;;;;;5001368;28;19951;-71
2022/07/23 08:47:07;;;;;;;;;;;27.40;51.20;;;;;;5000291;28;19948;-65
2022/07/23 08:49:33;;;;;;;;;;;27.40;51.20;;;;;;5000127;28;19917;-67
2022/07/23 08:51:59;;;;;;;;;;;27.40;51.20;;;;;;5000132;28;19980;-70
2022/07/23 08:54:24;;;;;;;;;;;27.40;51.20;;;;;;5007252;28;19994;-68
2022/07/23 08:56:50;;;;;;;;;;;27.40;51.10;;;;;;5000740;28;19921;-65
2022/07/23 08:59:15;;;;;;;;;;;27.40;51.10;;;;;;5001393;28;19924;-65
2022/07/23 09:01:41;;;;;;;;;;;27.50;51.10;;;;;;5000745;28;19972;-68
2022/07/23 09:04:06;;;;;;;;;;;27.40;51.00;;;;;;5002990;28;20011;-68
2022/07/23 09:06:32;;;;;;;;;;;27.40;51.00;;;;;;4998790;28;20393;-68
2022/07/23 09:08:57;;;;;;;;;;;27.50;51.00;;;;;;5011276;28;20004;-67
2022/07/23 09:11:23;;;;;;;;;;;27.50;51.00;;;;;;5000916;28;19917;-71
2022/07/23 09:13:49;;;;;;;;;;;27.50;50.90;;;;;;4999798;28;19913;-67
2022/07/23 09:16:16;;;;;;;;;;;27.50;50.90;;;;;;5000997;28;19914;-64
2022/07/23 09:18:46;;;;;;;;;;;27.50;50.90;;;;;;5003003;28;19945;-65
2022/07/23 09:21:12;;;;;;;;;;;27.50;50.90;;;;;;5000903;28;19918;-65
2022/07/23 09:23:53;;;;;;;;;;;27.50;50.80;;;;;;5000741;28;20371;-69
2022/07/23 09:26:23;;;;;;;;;;;27.50;50.80;;;;;;4999412;28;19924;-67
2022/07/23 09:28:50;;;;;;;;;;;27.50;50.80;;;;;;5003132;28;19963;-69
2022/07/23 09:31:16;;;;;;;;;;;27.50;50.70;;;;;;4999339;28;19960;-67
2022/07/23 09:33:42;;;;;;;;;;;27.60;50.80;;;;;;5001623;28;19952;-72
2022/07/23 09:36:09;;;;;;;;;;;27.60;50.70;;;;;;5005080;28;19921;-68
2022/07/23 09:38:34;;;;;;;;;;;27.60;50.70;;;;;;5000401;28;19914;-70
2022/07/23 09:41:07;;;;;;;;;;;27.60;50.60;;;;;;5001797;28;19944;-66
2022/07/23 09:43:32;;;;;;;;;;;27.60;50.70;;;;;;5000995;28;19968;-68
2022/07/23 09:46:17;;;;;;;;;;;27.60;50.50;;;;;;5003353;28;20343;-71
2022/07/23 09:48:42;;;;;;;;;;;27.60;50.40;;;;;;5000417;28;20007;-71
2022/07/23 09:51:08;;;;;;;;;;;27.60;50.40;;;;;;4996609;28;19971;-68
2022/07/23 09:53:33;;;;;;;;;;;27.60;50.40;;;;;;4999244;28;19924;-69
2022/07/23 09:56:00;;;;;;;;;;;27.60;50.30;;;;;;4999002;28;19949;-69
2022/07/23 09:58:26;;;;;;;;;;;27.60;50.30;;;;;;5002080;28;19924;-65
2022/07/23 10:00:52;;;;;;;;;;;27.60;50.30;;;;;;4999154;28;19948;-66
2022/07/23 10:03:19;;;;;;;;;;;27.60;50.20;;;;;;5004062;28;19913;-65
2022/07/23 10:05:45;;;;;;;;;;;27.60;50.20;;;;;;4994848;28;19921;-64
2022/07/23 10:08:16;;;;;;;;;;;27.60;50.10;;;;;;4999487;28;19928;-64
2022/07/23 10:10:42;;;;;;;;;;;27.60;50.10;;;;;;5007751;28;20398;-69
2022/07/23 10:15:34;;;;;;;;;;;27.60;50.00;;;;;;5000589;28;19929;-65
2022/07/23 10:18:00;;;;;;;;;;;27.60;50.00;;;;;;5000218;28;19910;-71
2022/07/23 10:20:25;;;;;;;;;;;27.70;49.90;;;;;;4999257;28;20338;-66
2022/07/23 10:22:59;;;;;;;;;;;27.60;49.90;;;;;;5005309;28;20032;-69
2022/07/23 10:25:31;;;;;;;;;;;27.70;49.90;;;;;;4999577;28;20775;-66
2022/07/23 10:28:03;;;;;;;;;;;27.70;49.90;;;;;;4999465;28;20337;-68
2022/07/23 10:30:34;;;;;;;;;;;27.60;49.70;;;;;;4999986;28;20012;-63
2022/07/23 10:33:12;;;;;;;;;;;27.70;49.80;;;;;;5000741;28;20017;-69
2022/07/23 10:35:47;;;;;;;;;;;27.70;49.70;;;;;;5000392;28;19917;-65
2022/07/23 10:38:21;;;;;;;;;;;27.70;49.80;;;;;;4998864;28;20000;-71
2022/07/23 10:40:53;;;;;;;;;;;27.70;49.70;;;;;;4999269;28;19924;-65
2022/07/23 10:43:19;;;;;;;;;;;27.70;49.70;;;;;;5002552;28;19940;-65
2022/07/23 10:45:44;;;;;;;;;;;27.70;49.80;;;;;;5000862;28;19918;-66
2022/07/23 10:48:16;;;;;;;;;;;27.70;49.80;;;;;;4997529;28;19917;-70
2022/07/23 10:50:42;;;;;;;;;;;27.70;49.70;;;;;;4997389;28;20350;-65
2022/07/23 10:53:08;;;;;;;;;;;27.70;49.70;;;;;;4998892;28;20832;-71
2022/07/23 10:55:33;;;;;;;;;;;27.70;49.70;;;;;;5009439;28;19924;-68
2022/07/23 10:57:59;;;;;;;;;;;27.70;49.80;;;;;;5000925;28;19930;-71
2022/07/23 11:00:25;;;;;;;;;;;27.70;49.80;;;;;;4997518;28;19913;-65
2022/07/23 11:02:53;;;;;;;;;;;27.70;49.80;;;;;;4998581;28;20000;-65
2022/07/23 11:05:23;;;;;;;;;;;27.80;49.90;;;;;;5000917;28;19917;-66
2022/07/23 11:08:19;;;;;;;;;;;27.80;49.90;;;;;;5002112;28;19935;-67
2022/07/23 11:10:46;;;;;;;;;;;27.80;49.90;;;;;;4990729;28;20401;-68
2022/07/23 11:13:24;;;;;;;;;;;27.80;49.90;;;;;;5002409;28;20435;-69
2022/07/23 11:16:02;;;;;;;;;;;27.80;49.90;;;;;;5002388;28;19924;-66
2022/07/23 11:18:40;;;;;;;;;;;27.80;49.90;;;;;;5003951;28;21224;-66
2022/07/23 11:21:20;;;;;;;;;;;27.80;50.00;;;;;;4999230;28;19933;-64
2022/07/23 11:24:08;;;;;;;;;;;27.80;49.90;;;;;;5002695;28;19926;-69
2022/07/23 11:26:42;;;;;;;;;;;27.80;49.90;;;;;;5004514;28;19925;-65
2022/07/23 11:29:26;;;;;;;;;;;27.80;49.90;;;;;;5001410;28;19913;-67
2022/07/23 11:31:52;;;;;;;;;;;27.80;50.00;;;;;;5008110;28;20358;-66
2022/07/23 11:34:27;;;;;;;;;;;27.80;50.10;;;;;;5000825;28;20338;-67
2022/07/23 11:36:53;;;;;;;;;;;27.80;50.40;;;;;;5008103;28;19921;-64
2022/07/23 11:39:20;;;;;;;;;;;27.80;50.50;;;;;;5008998;28;19921;-69
2022/07/23 11:41:45;;;;;;;;;;;27.80;50.50;;;;;;5008871;28;19952;-64
2022/07/23 11:44:24;;;;;;;;;;;27.90;50.70;;;;;;5005588;28;19921;-70
2022/07/23 11:46:56;;;;;;;;;;;27.90;50.60;;;;;;5006734;28;20016;-70
2022/07/23 11:49:21;;;;;;;;;;;27.90;51.20;;;;;;5000078;28;19917;-67
2022/07/23 11:51:47;;;;;;;;;;;27.90;50.60;;;;;;4999655;28;20340;-68
2022/07/23 11:54:12;;;;;;;;;;;28.00;50.60;;;;;;5003734;28;19929;-66
2022/07/23 11:56:54;;;;;;;;;;;28.10;50.90;;;;;;5000757;28;19921;-71
2022/07/23 11:59:20;;;;;;;;;;;28.10;51.00;;;;;;5001910;28;19921;-66
2022/07/23 12:01:59;;;;;;;;;;;28.10;51.10;;;;;;5001385;28;19921;-67
2022/07/23 12:04:36;;;;;;;;;;;28.20;51.20;;;;;;5006401;28;19917;-65
2022/07/23 12:07:02;;;;;;;;;;;28.20;51.10;;;;;;5006305;28;20119;-70
2022/07/23 12:09:27;;;;;;;;;;;28.30;51.20;;;;;;5014094;28;19924;-65
2022/07/23 12:11:59;;;;;;;;;;;28.30;51.10;;;;;;4996208;28;20011;-68
2022/07/23 12:14:25;;;;;;;;;;;28.30;51.10;;;;;;5001248;28;19918;-72
2022/07/23 12:17:06;;;;;;;;;;;28.40;51.00;;;;;;5003339;28;19987;-66
2022/07/23 12:19:32;;;;;;;;;;;28.40;51.00;;;;;;4995359;28;20460;-64
2022/07/23 12:21:57;;;;;;;;;;;28.40;50.90;;;;;;4991220;28;20006;-67
2022/07/23 12:24:23;;;;;;;;;;;28.50;50.90;;;;;;4996689;28;20365;-65
2022/07/23 12:27:07;;;;;;;;;;;28.50;50.80;;;;;;4995643;28;20452;-65
2022/07/23 12:29:36;;;;;;;;;;;28.50;50.70;;;;;;5001032;28;19919;-67
2022/07/23 12:32:02;;;;;;;;;;;28.50;50.60;;;;;;4997168;28;19926;-69
2022/07/23 12:34:28;;;;;;;;;;;28.60;50.60;;;;;;4992187;28;19913;-67
2022/07/23 12:36:53;;;;;;;;;;;28.60;50.60;;;;;;4995114;28;19991;-69
2022/07/23 12:39:31;;;;;;;;;;;28.70;50.60;;;;;;5004393;28;19917;-72
2022/07/23 12:41:57;;;;;;;;;;;28.70;50.60;;;;;;4997669;28;20653;-67
2022/07/23 12:44:23;;;;;;;;;;;28.70;50.50;;;;;;5002748;28;19928;-67
2022/07/23 12:46:52;;;;;;;;;;;28.70;50.50;;;;;;4993877;28;19918;-67
2022/07/23 12:49:27;;;;;;;;;;;28.80;50.50;;;;;;5002113;28;20032;-69
2022/07/23 12:51:53;;;;;;;;;;;28.80;50.50;;;;;;4995501;28;20004;-68
2022/07/23 12:54:26;;;;;;;;;;;28.90;50.50;;;;;;4994527;28;19921;-69
2022/07/23 12:56:52;;;;;;;;;;;28.90;50.60;;;;;;4996164;28;19917;-68
2022/07/23 12:59:17;;;;;;;;;;;28.90;50.60;;;;;;4995776;28;19917;-67
2022/07/23 13:01:48;;;;;;;;;;;29.00;50.60;;;;;;4995434;28;19961;-66
2022/07/23 13:04:21;;;;;;;;;;;29.00;50.50;;;;;;4998243;28;19929;-65
2022/07/23 13:06:48;;;;;;;;;;;29.00;50.40;;;;;;4995549;28;19922;-69
2022/07/23 13:09:15;;;;;;;;;;;29.00;50.40;;;;;;4998332;28;19956;-66
2022/07/23 13:11:41;;;;;;;;;;;29.00;50.30;;;;;;4999067;28;19921;-67
2022/07/23 13:14:07;;;;;;;;;;;29.10;50.30;;;;;;4999002;28;20016;-69
2022/07/23 13:16:33;;;;;;;;;;;29.10;50.20;;;;;;4998243;28;20263;-70
2022/07/23 13:18:59;;;;;;;;;;;29.10;50.20;;;;;;4999376;28;20008;-65
2022/07/23 13:21:25;;;;;;;;;;;29.10;50.20;;;;;;4999820;28;19983;-66
2022/07/23 13:23:51;;;;;;;;;;;29.10;50.10;;;;;;5012541;28;19948;-68
2022/07/23 13:26:17;;;;;;;;;;;29.10;50.10;;;;;;4996085;28;19937;-70
2022/07/23 13:28:42;;;;;;;;;;;29.10;50.10;;;;;;4994899;28;19921;-67
2022/07/23 13:31:08;;;;;;;;;;;29.20;50.10;;;;;;4995494;28;20565;-69
2022/07/23 13:33:34;;;;;;;;;;;29.20;50.00;;;;;;4998102;28;19939;-65
2022/07/23 13:36:00;;;;;;;;;;;29.20;50.00;;;;;;4995058;28;19918;-68
2022/07/23 13:38:26;;;;;;;;;;;29.20;50.00;;;;;;4996535;28;20073;-65
2022/07/23 13:40:52;;;;;;;;;;;29.20;50.00;;;;;;4992118;28;20689;-67
2022/07/23 13:43:18;;;;;;;;;;;29.20;50.00;;;;;;5001516;28;20987;-66
2022/07/23 13:45:45;;;;;;;;;;;29.20;49.90;;;;;;4999178;28;19998;-69
2022/07/23 13:48:11;;;;;;;;;;;29.20;49.90;;;;;;4996688;28;20287;-65
2022/07/23 13:50:37;;;;;;;;;;;29.20;49.90;;;;;;4993020;28;19928;-66
2022/07/23 13:53:09;;;;;;;;;;;29.20;49.90;;;;;;4995288;28;19917;-66
2022/07/23 13:55:35;;;;;;;;;;;29.20;50.40;;;;;;4995544;28;20349;-67
2022/07/23 13:58:00;;;;;;;;;;;29.20;49.90;;;;;;4999237;28;19925;-66
2022/07/23 14:00:26;;;;;;;;;;;29.20;49.90;;;;;;4999846;28;20018;-67
2022/07/23 14:02:52;;;;;;;;;;;29.20;49.80;;;;;;4998260;28;19925;-68
2022/07/23 14:05:18;;;;;;;;;;;29.20;49.80;;;;;;4995760;28;19921;-68
2022/07/23 14:07:44;;;;;;;;;;;29.20;49.80;;;;;;4997049;28;19982;-66
2022/07/23 14:10:10;;;;;;;;;;;29.20;49.80;;;;;;4995065;28;20008;-64
2022/07/23 14:12:36;;;;;;;;;;;29.20;49.80;;;;;;5000150;28;19925;-70
2022/07/23 14:15:02;;;;;;;;;;;29.20;49.70;;;;;;4998300;28;20000;-67
2022/07/23 14:17:28;;;;;;;;;;;29.20;49.70;;;;;;4998031;28;20380;-68